createdAt,value
2018-12-07T00:11:01.466Z,9.6
2018-12-07T00:16:01.311Z,9.7
2018-12-07T00:31:01.326Z,9.7
2018-12-07T00:36:06.274Z,9.6
2018-12-07T00:51:01.529Z,9.6
2018-12-07T01:06:01.347Z,9.6
2018-12-07T01:21:01.398Z,9.6
2018-12-07T01:37:01.363Z,9.6
2018-12-07T01:52:01.291Z,9.6
2018-12-07T01:57:01.271Z,9.7
2018-12-07T02:12:01.339Z,9.7
2018-12-07T02:27:01.376Z,9.7
2018-12-07T02:42:01.414Z,9.7
2018-12-07T02:57:01.359Z,9.7
2018-12-07T03:13:01.356Z,9.6
2018-12-07T03:28:01.312Z,9.6
2018-12-07T03:43:01.394Z,9.6
2018-12-07T03:58:01.410Z,9.6
2018-12-07T04:13:02.466Z,9.6
2018-12-07T04:28:01.290Z,9.6
2018-12-07T04:43:01.318Z,9.6
2018-12-07T04:48:01.247Z,9.5
2018-12-07T05:03:01.384Z,9.5
2018-12-07T05:18:01.666Z,9.6
2018-12-07T05:33:01.373Z,9.6
2018-12-07T05:48:01.413Z,9.6
2018-12-07T05:53:02.356Z,9.7
2018-12-07T06:08:01.335Z,9.7
2018-12-07T06:23:01.446Z,9.7
2018-12-07T06:38:01.122Z,9.6
2018-12-07T06:53:06.233Z,9.5
2018-12-07T07:08:01.239Z,9.5
2018-12-07T07:23:01.244Z,9.5
2018-12-07T07:38:01.264Z,9.5
2018-12-07T07:53:01.223Z,9.5
2018-12-07T07:58:01.243Z,9.6
2018-12-07T08:13:01.260Z,9.6
2018-12-07T08:18:01.199Z,9.7
2018-12-07T08:33:01.231Z,9.8
2018-12-07T08:48:01.250Z,9.8
2018-12-07T08:53:01.226Z,9.9
2018-12-07T09:03:01.304Z,10.0
2018-12-07T09:13:01.263Z,10.1
2018-12-07T09:18:01.274Z,10.2
2018-12-07T09:23:02.339Z,10.3
2018-12-07T09:33:01.955Z,10.4
2018-12-07T09:43:01.291Z,10.5
2018-12-07T09:53:01.275Z,10.6
2018-12-07T10:03:01.309Z,10.7
2018-12-07T10:18:01.253Z,10.7
2018-12-07T10:23:01.244Z,10.8
2018-12-07T10:38:01.256Z,10.7
2018-12-07T10:53:01.248Z,10.7
2018-12-07T11:09:01.292Z,10.7
2018-12-07T11:24:01.292Z,10.7
2018-12-07T11:39:12.941Z,10.8
2018-12-07T11:54:06.059Z,10.8
2018-12-07T12:09:01.251Z,10.8
2018-12-07T12:24:01.258Z,10.8
2018-12-07T12:39:01.258Z,10.8
2018-12-07T12:45:01.213Z,10.8
2018-12-07T12:55:02.353Z,10.7
2018-12-07T13:00:01.235Z,10.7
2018-12-07T13:15:01.272Z,10.7
2018-12-07T13:30:01.281Z,10.7
2018-12-07T13:35:01.252Z,10.6
2018-12-07T13:51:01.456Z,10.6
2018-12-07T14:06:01.632Z,10.6
2018-12-07T14:21:01.707Z,10.6
2018-12-07T14:36:01.686Z,10.5
2018-12-07T14:51:01.280Z,10.6
2018-12-07T15:06:01.671Z,10.6
2018-12-07T15:21:01.544Z,10.5
2018-12-07T15:36:01.432Z,10.5
2018-12-07T15:51:01.349Z,10.5
2018-12-07T16:06:01.133Z,10.5
2018-12-07T16:21:01.352Z,10.5
2018-12-07T16:36:01.533Z,10.5
2018-12-07T16:51:01.411Z,10.5
2018-12-07T17:06:01.721Z,10.5
2018-12-07T17:16:01.456Z,10.4
2018-12-07T17:31:01.385Z,10.5
2018-12-07T17:46:02.956Z,10.5
2018-12-07T17:56:01.574Z,10.4
2018-12-07T18:11:01.336Z,10.4
2018-12-07T18:26:01.450Z,10.3
2018-12-07T18:41:01.538Z,10.3
2018-12-07T18:56:01.426Z,10.3
2018-12-07T19:11:01.457Z,10.3
2018-12-07T19:16:01.324Z,10.2
2018-12-07T19:31:01.269Z,10.2
2018-12-07T19:46:01.452Z,10.2
2018-12-07T20:01:01.381Z,10.2
2018-12-07T20:06:01.795Z,10.1
2018-12-07T20:17:01.253Z,9.9
2018-12-07T20:22:01.320Z,9.6
2018-12-07T20:27:01.389Z,9.2
2018-12-07T20:32:01.655Z,8.9
2018-12-07T20:37:01.378Z,8.5
2018-12-07T20:42:01.538Z,8.3
2018-12-07T20:47:01.500Z,8.2
2018-12-07T20:52:01.638Z,8.1
2018-12-07T20:57:01.294Z,8.0
2018-12-07T21:12:01.510Z,7.9
2018-12-07T21:22:01.508Z,7.8
2018-12-07T21:27:01.486Z,7.7
2018-12-07T21:32:01.508Z,7.6
2018-12-07T21:37:01.320Z,7.5
2018-12-07T21:42:01.472Z,7.4
2018-12-07T21:52:01.585Z,7.3
2018-12-07T22:07:01.448Z,7.3
2018-12-07T22:23:01.552Z,7.2
2018-12-07T22:38:01.306Z,7.2
2018-12-07T22:53:01.375Z,7.1
2018-12-07T23:03:01.418Z,7.0
2018-12-07T23:18:01.405Z,6.9
2018-12-07T23:24:02.298Z,6.8
2018-12-07T23:39:02.210Z,6.7
2018-12-07T23:54:01.327Z,6.7
